Edmonton International Airport

CYEG · 艾伯塔, 加拿大

罗盘
风向 的 风向 200° Edmonton International Airport 2/20
风: 5 kt, 2 beaufort

5 kt

1 kt
改变
0 2.000 4.000 6.000 8.000 10.000
FEW 5.000 ft
SCT 6.600 ft
BKN 8.100 ft
SPECI CYEG 071342Z 20005KT 20SM FEW050 SCT066 BKN081 M13/M16 A2965 RMK SC1AC3AC3 SLP111

METAR Edmonton International Airport - CYEG/YEG

Edmonton International Airport是,加拿大中的大型机场。 该机场有2条跑道: 2/20 和 12/30. 该领域的国际民航组织标志是CYEG 它的国际航空运输协会代码是YEG.

这份报告是针对2022年12月7日 06:42, 当地时间在Edmonton International Airport进行的。

机场观察

风向为200°,速度为5 kt。

可见度为20 mi。

有几云在5.000 ft的高度, 疏云,零星散落的云朵在6.600 ft的高度 和 碎云在8.100 ft的高度。 破损或更高的上限为8.100 ft。

温度为-13 °C,阵风为-21 °C。 露点为-16 °C,相对湿度为78%。 海平面上的气压为29,65 inHg (QNH)。

白天

今天,太阳从08:34升起,在16:16降落。 这适用于Edmonton International Airport,世界夏令时可能有所不同。 当地时间与世界标准时间之间的时差为-7 小时。 当前,没有夏令时有效。

公司介绍

我们没有关于这个机场的公司信息。

体会

到Vliegles.nl去找飞行课程,跳伞和其他飞行体验。 浏览页面,了解Edmonton International Airport附近所有可用的活动。 你也可以使用搜索功能来寻找你所在地附近的特定飞行课程、跳伞或其他飞行体验。

跑道

Id 标题 侧风 逆风 侧风 %
2/20 034°-214° 1 kt 5 kt 24 %
12/30 135°-315° 5 kt 2 kt 91 %

逆风成分最大的方向会被突出显示,并用于横风计算。 这并不一定意味着这个方向在使用。

乌云

5.000 ft FEW 几云
6.600 ft SCT 疏云,零星散落的云朵
8.100 ft BKN 碎云

温度 & 天气

温度 -13 °C
露点 -16 °C
相对湿度 78%
风寒 -21 °C
Kp-index 5 (0-9)

评论

SLP111海平面压力为29,86 inHg (29,86 inHg)
SC1AC3AC3

白天

日出
08:34 (1:28)
中午
12:25
日落
16:16

小工具

你想在你的网站上有一个关于Edmonton International Airport的当前航空天气(METAR)的小部件吗?

显示HTML代码

我们和第三方通过cookies跟踪您在我们网站上的互联网行为。如果你继续,我们认为你同意我们的饼干政策